sensor_id;sensor_type;location;lat;lon;timestamp;temperature;humidity
26575;DHT22;67165;50.256;10.978;2023-10-13T00:00:33;14.90;98.00
26575;DHT22;67165;50.256;10.978;2023-10-13T00:03:02;14.90;98.00
26575;DHT22;67165;50.256;10.978;2023-10-13T00:05:28;14.80;98.00
26575;DHT22;67165;50.256;10.978;2023-10-13T00:07:56;14.90;98.00
26575;DHT22;67165;50.256;10.978;2023-10-13T00:10:29;14.80;98.00
26575;DHT22;67165;50.256;10.978;2023-10-13T00:12:56;14.90;98.00
26575;DHT22;67165;50.256;10.978;2023-10-13T00:15:32;14.90;98.00
26575;DHT22;67165;50.256;10.978;2023-10-13T00:18:05;14.90;98.00
26575;DHT22;67165;50.256;10.978;2023-10-13T00:20:39;14.90;98.00
26575;DHT22;67165;50.256;10.978;2023-10-13T00:23:04;14.90;98.00
26575;DHT22;67165;50.256;10.978;2023-10-13T00:25:31;14.90;98.00
26575;DHT22;67165;50.256;10.978;2023-10-13T00:28:05;14.90;98.00
26575;DHT22;67165;50.256;10.978;2023-10-13T00:30:36;14.90;98.00
26575;DHT22;67165;50.256;10.978;2023-10-13T00:33:02;14.90;98.00
26575;DHT22;67165;50.256;10.978;2023-10-13T00:35:30;14.80;98.00
26575;DHT22;67165;50.256;10.978;2023-10-13T00:38:05;14.80;98.00
26575;DHT22;67165;50.256;10.978;2023-10-13T00:40:43;14.80;98.00
26575;DHT22;67165;50.256;10.978;2023-10-13T00:43:19;14.80;98.00
26575;DHT22;67165;50.256;10.978;2023-10-13T00:45:47;14.80;98.00
26575;DHT22;67165;50.256;10.978;2023-10-13T00:48:33;14.80;98.00
26575;DHT22;67165;50.256;10.978;2023-10-13T00:51:06;14.80;98.00
26575;DHT22;67165;50.256;10.978;2023-10-13T00:53:36;14.80;98.00
26575;DHT22;67165;50.256;10.978;2023-10-13T00:56:10;14.80;98.00
26575;DHT22;67165;50.256;10.978;2023-10-13T00:58:46;14.80;98.00
26575;DHT22;67165;50.256;10.978;2023-10-13T01:01:12;14.80;98.00
26575;DHT22;67165;50.256;10.978;2023-10-13T01:03:46;14.80;98.00
26575;DHT22;67165;50.256;10.978;2023-10-13T01:06:17;14.80;98.00
26575;DHT22;67165;50.256;10.978;2023-10-13T01:08:47;14.80;98.00
26575;DHT22;67165;50.256;10.978;2023-10-13T01:11:19;14.80;98.00
26575;DHT22;67165;50.256;10.978;2023-10-13T01:13:49;14.80;98.00
26575;DHT22;67165;50.256;10.978;2023-10-13T01:16:17;14.80;98.00
26575;DHT22;67165;50.256;10.978;2023-10-13T01:18:46;14.80;98.00
26575;DHT22;67165;50.256;10.978;2023-10-13T01:21:16;14.70;98.00
26575;DHT22;67165;50.256;10.978;2023-10-13T01:23:44;14.70;98.00
26575;DHT22;67165;50.256;10.978;2023-10-13T01:26:12;14.70;98.00
26575;DHT22;67165;50.256;10.978;2023-10-13T01:28:41;14.70;98.00
26575;DHT22;67165;50.256;10.978;2023-10-13T01:31:12;14.70;98.00
26575;DHT22;67165;50.256;10.978;2023-10-13T01:33:53;14.80;98.00
26575;DHT22;67165;50.256;10.978;2023-10-13T01:36:22;14.80;98.00
26575;DHT22;67165;50.256;10.978;2023-10-13T01:38:48;14.80;98.00
26575;DHT22;67165;50.256;10.978;2023-10-13T01:41:15;14.80;98.00
26575;DHT22;67165;50.256;10.978;2023-10-13T01:43:42;14.80;98.00
26575;DHT22;67165;50.256;10.978;2023-10-13T01:46:08;14.80;98.00
26575;DHT22;67165;50.256;10.978;2023-10-13T01:48:35;14.80;98.00
26575;DHT22;67165;50.256;10.978;2023-10-13T01:51:04;14.80;98.00
26575;DHT22;67165;50.256;10.978;2023-10-13T01:53:39;14.80;98.00
26575;DHT22;67165;50.256;10.978;2023-10-13T01:56:05;14.80;98.00
26575;DHT22;67165;50.256;10.978;2023-10-13T01:58:37;14.80;98.00
26575;DHT22;67165;50.256;10.978;2023-10-13T02:01:02;14.80;98.00
26575;DHT22;67165;50.256;10.978;2023-10-13T02:03:29;14.80;98.00
26575;DHT22;67165;50.256;10.978;2023-10-13T02:05:55;14.80;98.00
26575;DHT22;67165;50.256;10.978;2023-10-13T02:08:23;14.80;98.00
26575;DHT22;67165;50.256;10.978;2023-10-13T02:10:50;14.80;98.00
26575;DHT22;67165;50.256;10.978;2023-10-13T02:13:17;14.80;98.00
26575;DHT22;67165;50.256;10.978;2023-10-13T02:15:46;14.80;98.00
26575;DHT22;67165;50.256;10.978;2023-10-13T02:18:16;14.80;98.00
26575;DHT22;67165;50.256;10.978;2023-10-13T02:21:07;14.80;98.00
26575;DHT22;67165;50.256;10.978;2023-10-13T02:23:42;14.90;98.00
26575;DHT22;67165;50.256;10.978;2023-10-13T02:26:13;14.90;98.00
26575;DHT22;67165;50.256;10.978;2023-10-13T02:28:52;14.90;98.00
26575;DHT22;67165;50.256;10.978;2023-10-13T02:31:22;15.00;98.00
26575;DHT22;67165;50.256;10.978;2023-10-13T02:33:50;15.00;98.00
26575;DHT22;67165;50.256;10.978;2023-10-13T02:36:15;15.00;98.00
26575;DHT22;67165;50.256;10.978;2023-10-13T02:38:50;15.00;98.00
26575;DHT22;67165;50.256;10.978;2023-10-13T02:41:23;15.00;98.00
26575;DHT22;67165;50.256;10.978;2023-10-13T02:43:53;15.00;98.00
26575;DHT22;67165;50.256;10.978;2023-10-13T02:46:20;15.00;98.00
26575;DHT22;67165;50.256;10.978;2023-10-13T02:48:49;15.00;98.00
26575;DHT22;67165;50.256;10.978;2023-10-13T02:51:22;15.00;98.00
26575;DHT22;67165;50.256;10.978;2023-10-13T02:53:57;15.00;98.00
26575;DHT22;67165;50.256;10.978;2023-10-13T02:56:29;14.90;98.00
26575;DHT22;67165;50.256;10.978;2023-10-13T02:58:54;15.00;98.00
26575;DHT22;67165;50.256;10.978;2023-10-13T03:01:22;15.00;98.00
26575;DHT22;67165;50.256;10.978;2023-10-13T03:03:54;15.00;98.00
26575;DHT22;67165;50.256;10.978;2023-10-13T03:06:21;15.00;98.00
26575;DHT22;67165;50.256;10.978;2023-10-13T03:08:51;15.00;98.00
26575;DHT22;67165;50.256;10.978;2023-10-13T03:11:17;15.00;98.00
26575;DHT22;67165;50.256;10.978;2023-10-13T03:13:47;14.90;98.00
26575;DHT22;67165;50.256;10.978;2023-10-13T03:16:16;14.90;98.00
26575;DHT22;67165;50.256;10.978;2023-10-13T03:18:48;15.00;98.00
26575;DHT22;67165;50.256;10.978;2023-10-13T03:21:20;14.90;98.00
26575;DHT22;67165;50.256;10.978;2023-10-13T03:23:57;14.90;98.00
26575;DHT22;67165;50.256;10.978;2023-10-13T03:26:32;15.00;98.00
26575;DHT22;67165;50.256;10.978;2023-10-13T03:29:03;15.00;98.00
26575;DHT22;67165;50.256;10.978;2023-10-13T03:31:32;15.00;98.00
26575;DHT22;67165;50.256;10.978;2023-10-13T03:34:04;15.00;98.00
26575;DHT22;67165;50.256;10.978;2023-10-13T03:36:29;14.90;98.00
26575;DHT22;67165;50.256;10.978;2023-10-13T03:39:13;14.90;98.00
26575;DHT22;67165;50.256;10.978;2023-10-13T03:41:40;14.90;98.00
26575;DHT22;67165;50.256;10.978;2023-10-13T03:44:06;14.90;98.00
26575;DHT22;67165;50.256;10.978;2023-10-13T03:46:39;14.90;98.00
26575;DHT22;67165;50.256;10.978;2023-10-13T03:49:08;14.90;98.00
26575;DHT22;67165;50.256;10.978;2023-10-13T03:51:39;14.90;98.00
26575;DHT22;67165;50.256;10.978;2023-10-13T03:54:05;14.90;98.00
26575;DHT22;67165;50.256;10.978;2023-10-13T03:56:34;14.90;98.00
26575;DHT22;67165;50.256;10.978;2023-10-13T03:59:07;14.90;98.00
26575;DHT22;67165;50.256;10.978;2023-10-13T04:01:44;14.90;98.00
26575;DHT22;67165;50.256;10.978;2023-10-13T04:04:11;14.90;98.00
26575;DHT22;67165;50.256;10.978;2023-10-13T04:06:38;14.90;98.00
26575;DHT22;67165;50.256;10.978;2023-10-13T04:09:20;14.90;98.00
26575;DHT22;67165;50.256;10.978;2023-10-13T04:12:15;14.90;98.00
26575;DHT22;67165;50.256;10.978;2023-10-13T04:14:51;14.90;98.00
26575;DHT22;67165;50.256;10.978;2023-10-13T04:17:24;14.90;98.00
26575;DHT22;67165;50.256;10.978;2023-10-13T04:19:54;14.90;98.00
26575;DHT22;67165;50.256;10.978;2023-10-13T04:22:42;14.90;98.00
26575;DHT22;67165;50.256;10.978;2023-10-13T04:25:14;14.90;98.00
26575;DHT22;67165;50.256;10.978;2023-10-13T04:27:59;14.90;98.00
26575;DHT22;67165;50.256;10.978;2023-10-13T04:33:32;14.80;98.00
26575;DHT22;67165;50.256;10.978;2023-10-13T04:36:08;14.80;98.00
26575;DHT22;67165;50.256;10.978;2023-10-13T04:38:50;14.80;98.00
26575;DHT22;67165;50.256;10.978;2023-10-13T04:41:37;14.80;98.00
26575;DHT22;67165;50.256;10.978;2023-10-13T04:44:17;14.80;98.00
26575;DHT22;67165;50.256;10.978;2023-10-13T04:46:55;14.80;98.00
26575;DHT22;67165;50.256;10.978;2023-10-13T04:49:37;14.80;98.00
26575;DHT22;67165;50.256;10.978;2023-10-13T04:52:09;14.90;98.00
26575;DHT22;67165;50.256;10.978;2023-10-13T04:57:17;14.90;98.00
26575;DHT22;67165;50.256;10.978;2023-10-13T05:00:04;14.90;98.00
26575;DHT22;67165;50.256;10.978;2023-10-13T05:02:40;14.90;98.00
26575;DHT22;67165;50.256;10.978;2023-10-13T05:05:14;14.90;98.00
26575;DHT22;67165;50.256;10.978;2023-10-13T05:07:42;14.90;98.00
26575;DHT22;67165;50.256;10.978;2023-10-13T05:10:27;14.90;98.00
26575;DHT22;67165;50.256;10.978;2023-10-13T05:13:12;14.90;98.00
26575;DHT22;67165;50.256;10.978;2023-10-13T05:15:56;14.90;98.00
26575;DHT22;67165;50.256;10.978;2023-10-13T05:18:40;14.90;98.00
26575;DHT22;67165;50.256;10.978;2023-10-13T05:21:24;14.90;98.00
26575;DHT22;67165;50.256;10.978;2023-10-13T05:24:09;15.00;98.00
26575;DHT22;67165;50.256;10.978;2023-10-13T05:26:53;14.90;98.00
26575;DHT22;67165;50.256;10.978;2023-10-13T05:29:45;14.90;98.00
26575;DHT22;67165;50.256;10.978;2023-10-13T05:32:30;15.00;98.00
26575;DHT22;67165;50.256;10.978;2023-10-13T05:35:14;15.00;98.00
26575;DHT22;67165;50.256;10.978;2023-10-13T05:38:16;15.00;98.00
26575;DHT22;67165;50.256;10.978;2023-10-13T05:41:02;15.00;98.00
26575;DHT22;67165;50.256;10.978;2023-10-13T05:43:46;15.00;98.00
26575;DHT22;67165;50.256;10.978;2023-10-13T05:46:31;15.00;98.00
26575;DHT22;67165;50.256;10.978;2023-10-13T05:49:04;15.00;98.00
26575;DHT22;67165;50.256;10.978;2023-10-13T05:51:42;15.00;98.00
26575;DHT22;67165;50.256;10.978;2023-10-13T05:54:07;15.00;98.00
26575;DHT22;67165;50.256;10.978;2023-10-13T05:56:43;15.00;98.00
26575;DHT22;67165;50.256;10.978;2023-10-13T05:59:28;15.00;98.00
26575;DHT22;67165;50.256;10.978;2023-10-13T06:02:14;15.00;98.00
26575;DHT22;67165;50.256;10.978;2023-10-13T06:05:01;15.00;98.00
26575;DHT22;67165;50.256;10.978;2023-10-13T06:07:45;15.00;98.00
26575;DHT22;67165;50.256;10.978;2023-10-13T06:10:30;15.00;98.00
26575;DHT22;67165;50.256;10.978;2023-10-13T06:13:14;15.00;98.00
26575;DHT22;67165;50.256;10.978;2023-10-13T06:15:58;14.90;98.00
26575;DHT22;67165;50.256;10.978;2023-10-13T06:18:42;15.00;98.00
26575;DHT22;67165;50.256;10.978;2023-10-13T06:21:26;15.00;98.00
26575;DHT22;67165;50.256;10.978;2023-10-13T06:24:10;15.00;98.00
26575;DHT22;67165;50.256;10.978;2023-10-13T06:26:54;15.00;98.00
26575;DHT22;67165;50.256;10.978;2023-10-13T06:29:38;15.00;98.00
26575;DHT22;67165;50.256;10.978;2023-10-13T06:32:04;15.10;98.00
26575;DHT22;67165;50.256;10.978;2023-10-13T06:34:36;15.10;98.00
26575;DHT22;67165;50.256;10.978;2023-10-13T06:37:14;15.10;98.00
26575;DHT22;67165;50.256;10.978;2023-10-13T06:40:08;15.20;98.00
26575;DHT22;67165;50.256;10.978;2023-10-13T06:42:53;15.20;98.00
26575;DHT22;67165;50.256;10.978;2023-10-13T06:45:20;15.30;98.00
26575;DHT22;67165;50.256;10.978;2023-10-13T06:47:47;15.30;98.00
26575;DHT22;67165;50.256;10.978;2023-10-13T06:50:18;15.40;98.00
26575;DHT22;67165;50.256;10.978;2023-10-13T06:52:50;15.40;98.00
26575;DHT22;67165;50.256;10.978;2023-10-13T06:55:16;15.40;98.00
26575;DHT22;67165;50.256;10.978;2023-10-13T06:57:46;15.40;98.00
26575;DHT22;67165;50.256;10.978;2023-10-13T07:00:13;15.30;98.00
26575;DHT22;67165;50.256;10.978;2023-10-13T07:03:05;15.40;98.00
26575;DHT22;67165;50.256;10.978;2023-10-13T07:05:46;15.40;98.00
26575;DHT22;67165;50.256;10.978;2023-10-13T07:08:16;15.40;98.00
26575;DHT22;67165;50.256;10.978;2023-10-13T07:10:49;15.50;98.00
26575;DHT22;67165;50.256;10.978;2023-10-13T07:13:31;15.50;98.00
26575;DHT22;67165;50.256;10.978;2023-10-13T07:15:59;15.70;98.00
26575;DHT22;67165;50.256;10.978;2023-10-13T07:18:26;15.80;98.00
26575;DHT22;67165;50.256;10.978;2023-10-13T07:20:51;15.80;98.00
26575;DHT22;67165;50.256;10.978;2023-10-13T07:23:23;15.90;98.00
26575;DHT22;67165;50.256;10.978;2023-10-13T07:25:56;16.00;98.00
26575;DHT22;67165;50.256;10.978;2023-10-13T07:28:29;16.10;98.00
26575;DHT22;67165;50.256;10.978;2023-10-13T07:31:12;16.30;98.00
26575;DHT22;67165;50.256;10.978;2023-10-13T07:33:38;16.40;98.00
26575;DHT22;67165;50.256;10.978;2023-10-13T07:36:07;16.60;98.00
26575;DHT22;67165;50.256;10.978;2023-10-13T07:38:48;16.70;98.00
26575;DHT22;67165;50.256;10.978;2023-10-13T07:41:17;16.70;98.00
26575;DHT22;67165;50.256;10.978;2023-10-13T07:43:47;16.80;98.00
26575;DHT22;67165;50.256;10.978;2023-10-13T07:46:14;16.80;98.00
26575;DHT22;67165;50.256;10.978;2023-10-13T07:48:40;16.90;98.00
26575;DHT22;67165;50.256;10.978;2023-10-13T07:51:08;16.90;98.00
26575;DHT22;67165;50.256;10.978;2023-10-13T07:53:45;16.90;98.00
26575;DHT22;67165;50.256;10.978;2023-10-13T07:56:14;16.90;98.00
26575;DHT22;67165;50.256;10.978;2023-10-13T07:58:44;16.90;98.00
26575;DHT22;67165;50.256;10.978;2023-10-13T08:01:18;17.00;98.00
26575;DHT22;67165;50.256;10.978;2023-10-13T08:03:45;17.10;98.00
26575;DHT22;67165;50.256;10.978;2023-10-13T08:06:13;17.10;98.00
26575;DHT22;67165;50.256;10.978;2023-10-13T08:08:39;17.20;98.00
26575;DHT22;67165;50.256;10.978;2023-10-13T08:11:09;17.20;98.00
26575;DHT22;67165;50.256;10.978;2023-10-13T08:13:52;17.30;98.00
26575;DHT22;67165;50.256;10.978;2023-10-13T08:16:40;17.40;98.00
26575;DHT22;67165;50.256;10.978;2023-10-13T08:19:23;17.40;98.00
26575;DHT22;67165;50.256;10.978;2023-10-13T08:22:12;17.50;98.00
26575;DHT22;67165;50.256;10.978;2023-10-13T08:24:53;17.60;98.00
26575;DHT22;67165;50.256;10.978;2023-10-13T08:27:20;17.70;98.00
26575;DHT22;67165;50.256;10.978;2023-10-13T08:30:00;17.70;98.00
26575;DHT22;67165;50.256;10.978;2023-10-13T08:32:44;17.80;98.00
26575;DHT22;67165;50.256;10.978;2023-10-13T08:35:25;17.90;98.00
26575;DHT22;67165;50.256;10.978;2023-10-13T08:38:00;18.00;98.00
26575;DHT22;67165;50.256;10.978;2023-10-13T08:40:30;18.00;98.00
26575;DHT22;67165;50.256;10.978;2023-10-13T08:43:14;18.10;98.00
26575;DHT22;67165;50.256;10.978;2023-10-13T08:45:42;18.10;98.00
26575;DHT22;67165;50.256;10.978;2023-10-13T08:48:10;18.20;98.00
26575;DHT22;67165;50.256;10.978;2023-10-13T08:56:04;18.20;98.00
26575;DHT22;67165;50.256;10.978;2023-10-13T08:58:40;18.20;98.00
26575;DHT22;67165;50.256;10.978;2023-10-13T09:01:18;18.30;98.00
26575;DHT22;67165;50.256;10.978;2023-10-13T09:04:09;18.40;98.00
26575;DHT22;67165;50.256;10.978;2023-10-13T09:06:46;18.50;98.00
26575;DHT22;67165;50.256;10.978;2023-10-13T09:09:32;18.60;98.00
26575;DHT22;67165;50.256;10.978;2023-10-13T09:12:25;18.60;98.00
26575;DHT22;67165;50.256;10.978;2023-10-13T09:17:46;18.60;98.00
26575;DHT22;67165;50.256;10.978;2023-10-13T09:20:32;18.60;98.00
26575;DHT22;67165;50.256;10.978;2023-10-13T09:28:10;19.00;98.00
26575;DHT22;67165;50.256;10.978;2023-10-13T09:30:47;19.30;98.00
26575;DHT22;67165;50.256;10.978;2023-10-13T09:33:13;19.30;98.00
26575;DHT22;67165;50.256;10.978;2023-10-13T09:35:44;19.50;98.00
26575;DHT22;67165;50.256;10.978;2023-10-13T09:38:16;19.50;98.00
26575;DHT22;67165;50.256;10.978;2023-10-13T09:40:43;19.60;98.00
26575;DHT22;67165;50.256;10.978;2023-10-13T09:43:27;19.60;98.00
26575;DHT22;67165;50.256;10.978;2023-10-13T09:46:01;19.60;98.00
26575;DHT22;67165;50.256;10.978;2023-10-13T09:48:37;19.50;98.00
26575;DHT22;67165;50.256;10.978;2023-10-13T09:51:12;19.40;98.00
26575;DHT22;67165;50.256;10.978;2023-10-13T09:53:40;19.50;98.00
26575;DHT22;67165;50.256;10.978;2023-10-13T09:56:26;19.60;98.00
26575;DHT22;67165;50.256;10.978;2023-10-13T09:59:01;19.60;98.00
26575;DHT22;67165;50.256;10.978;2023-10-13T10:01:38;19.70;98.00
26575;DHT22;67165;50.256;10.978;2023-10-13T10:04:16;19.80;98.00
26575;DHT22;67165;50.256;10.978;2023-10-13T10:06:55;19.80;98.00
26575;DHT22;67165;50.256;10.978;2023-10-13T10:09:34;19.90;98.00
26575;DHT22;67165;50.256;10.978;2023-10-13T10:17:13;20.00;98.00
26575;DHT22;67165;50.256;10.978;2023-10-13T10:20:05;20.10;98.00
26575;DHT22;67165;50.256;10.978;2023-10-13T10:22:41;20.10;98.00
26575;DHT22;67165;50.256;10.978;2023-10-13T10:25:13;20.20;98.00
26575;DHT22;67165;50.256;10.978;2023-10-13T10:28:07;20.20;98.00
26575;DHT22;67165;50.256;10.978;2023-10-13T10:30:42;20.40;98.00
26575;DHT22;67165;50.256;10.978;2023-10-13T10:33:10;20.40;98.00
26575;DHT22;67165;50.256;10.978;2023-10-13T10:35:42;20.40;98.00
26575;DHT22;67165;50.256;10.978;2023-10-13T10:38:15;20.30;98.00
26575;DHT22;67165;50.256;10.978;2023-10-13T10:41:02;20.40;98.00
26575;DHT22;67165;50.256;10.978;2023-10-13T10:43:38;20.50;98.00
26575;DHT22;67165;50.256;10.978;2023-10-13T10:46:26;20.40;98.00
26575;DHT22;67165;50.256;10.978;2023-10-13T10:48:53;20.50;98.00
26575;DHT22;67165;50.256;10.978;2023-10-13T10:51:26;20.50;98.00
26575;DHT22;67165;50.256;10.978;2023-10-13T10:53:57;20.40;98.00
26575;DHT22;67165;50.256;10.978;2023-10-13T10:56:25;20.50;98.00
26575;DHT22;67165;50.256;10.978;2023-10-13T10:59:00;20.40;98.00
26575;DHT22;67165;50.256;10.978;2023-10-13T11:01:28;20.50;98.00
26575;DHT22;67165;50.256;10.978;2023-10-13T11:04:07;20.60;98.00
26575;DHT22;67165;50.256;10.978;2023-10-13T11:06:54;20.60;98.00
26575;DHT22;67165;50.256;10.978;2023-10-13T11:09:38;20.70;98.00
26575;DHT22;67165;50.256;10.978;2023-10-13T11:12:14;20.80;98.00
26575;DHT22;67165;50.256;10.978;2023-10-13T11:14:42;20.90;98.00
26575;DHT22;67165;50.256;10.978;2023-10-13T11:17:08;20.90;98.00
26575;DHT22;67165;50.256;10.978;2023-10-13T11:19:44;20.90;98.00
26575;DHT22;67165;50.256;10.978;2023-10-13T11:22:17;20.90;98.00
26575;DHT22;67165;50.256;10.978;2023-10-13T11:24:58;21.00;98.00
26575;DHT22;67165;50.256;10.978;2023-10-13T11:27:31;21.00;98.00
26575;DHT22;67165;50.256;10.978;2023-10-13T11:30:16;21.10;98.00
26575;DHT22;67165;50.256;10.978;2023-10-13T11:32:59;21.10;98.00
26575;DHT22;67165;50.256;10.978;2023-10-13T11:35:25;21.10;98.00
26575;DHT22;67165;50.256;10.978;2023-10-13T11:37:53;21.20;98.00
26575;DHT22;67165;50.256;10.978;2023-10-13T11:40:31;21.40;98.00
26575;DHT22;67165;50.256;10.978;2023-10-13T11:43:12;21.50;98.00
26575;DHT22;67165;50.256;10.978;2023-10-13T11:45:48;21.60;98.00
26575;DHT22;67165;50.256;10.978;2023-10-13T11:48:32;21.70;98.00
26575;DHT22;67165;50.256;10.978;2023-10-13T11:51:14;21.90;98.00
26575;DHT22;67165;50.256;10.978;2023-10-13T11:53:45;21.80;98.00
26575;DHT22;67165;50.256;10.978;2023-10-13T11:56:17;22.00;98.00
26575;DHT22;67165;50.256;10.978;2023-10-13T11:58:43;22.00;98.00
26575;DHT22;67165;50.256;10.978;2023-10-13T12:01:08;22.00;98.00
26575;DHT22;67165;50.256;10.978;2023-10-13T12:03:44;21.90;98.00
26575;DHT22;67165;50.256;10.978;2023-10-13T12:06:29;21.90;98.00
26575;DHT22;67165;50.256;10.978;2023-10-13T12:09:10;21.90;98.00
26575;DHT22;67165;50.256;10.978;2023-10-13T12:11:42;21.70;98.00
26575;DHT22;67165;50.256;10.978;2023-10-13T12:14:13;21.80;98.00
26575;DHT22;67165;50.256;10.978;2023-10-13T12:16:55;21.80;98.00
26575;DHT22;67165;50.256;10.978;2023-10-13T12:19:22;21.80;98.00
26575;DHT22;67165;50.256;10.978;2023-10-13T12:21:55;21.90;98.00
26575;DHT22;67165;50.256;10.978;2023-10-13T12:24:26;21.90;98.00
26575;DHT22;67165;50.256;10.978;2023-10-13T12:27:05;21.90;98.00
26575;DHT22;67165;50.256;10.978;2023-10-13T12:29:49;21.90;98.00
26575;DHT22;67165;50.256;10.978;2023-10-13T12:32:17;22.00;98.00
26575;DHT22;67165;50.256;10.978;2023-10-13T12:34:48;22.00;98.00
26575;DHT22;67165;50.256;10.978;2023-10-13T12:37:26;22.10;98.00
26575;DHT22;67165;50.256;10.978;2023-10-13T12:40:18;22.20;98.00
26575;DHT22;67165;50.256;10.978;2023-10-13T12:43:03;22.30;98.00
26575;DHT22;67165;50.256;10.978;2023-10-13T12:45:49;22.30;98.00
26575;DHT22;67165;50.256;10.978;2023-10-13T12:48:36;22.30;98.00
26575;DHT22;67165;50.256;10.978;2023-10-13T12:51:20;22.30;98.00
26575;DHT22;67165;50.256;10.978;2023-10-13T12:53:51;22.20;98.00
26575;DHT22;67165;50.256;10.978;2023-10-13T12:56:18;22.20;98.00
26575;DHT22;67165;50.256;10.978;2023-10-13T12:58:54;22.20;98.00
26575;DHT22;67165;50.256;10.978;2023-10-13T13:01:23;22.20;98.00
26575;DHT22;67165;50.256;10.978;2023-10-13T13:03:51;22.30;98.00
26575;DHT22;67165;50.256;10.978;2023-10-13T13:06:23;22.30;98.00
26575;DHT22;67165;50.256;10.978;2023-10-13T13:08:52;22.30;98.00
26575;DHT22;67165;50.256;10.978;2023-10-13T13:11:18;22.40;98.00
26575;DHT22;67165;50.256;10.978;2023-10-13T13:13:44;22.30;98.00
26575;DHT22;67165;50.256;10.978;2023-10-13T13:16:12;22.30;98.00
26575;DHT22;67165;50.256;10.978;2023-10-13T13:18:38;22.30;98.00
26575;DHT22;67165;50.256;10.978;2023-10-13T13:21:04;22.30;98.00
26575;DHT22;67165;50.256;10.978;2023-10-13T13:23:32;22.30;98.00
26575;DHT22;67165;50.256;10.978;2023-10-13T13:26:00;22.30;98.00
26575;DHT22;67165;50.256;10.978;2023-10-13T13:28:26;22.30;98.00
26575;DHT22;67165;50.256;10.978;2023-10-13T13:30:55;22.20;98.00
26575;DHT22;67165;50.256;10.978;2023-10-13T13:33:20;22.10;98.00
26575;DHT22;67165;50.256;10.978;2023-10-13T13:35:54;22.00;98.00
26575;DHT22;67165;50.256;10.978;2023-10-13T13:38:20;21.90;98.00
26575;DHT22;67165;50.256;10.978;2023-10-13T13:40:53;21.90;98.00
26575;DHT22;67165;50.256;10.978;2023-10-13T13:43:21;21.90;98.00
26575;DHT22;67165;50.256;10.978;2023-10-13T13:46:07;21.90;98.00
26575;DHT22;67165;50.256;10.978;2023-10-13T13:48:39;21.90;98.00
26575;DHT22;67165;50.256;10.978;2023-10-13T13:51:06;21.80;98.00
26575;DHT22;67165;50.256;10.978;2023-10-13T13:53:43;21.80;98.00
26575;DHT22;67165;50.256;10.978;2023-10-13T13:56:14;21.80;98.00
26575;DHT22;67165;50.256;10.978;2023-10-13T13:58:48;21.90;98.00
26575;DHT22;67165;50.256;10.978;2023-10-13T14:01:14;21.80;98.00
26575;DHT22;67165;50.256;10.978;2023-10-13T14:03:44;21.90;98.00
26575;DHT22;67165;50.256;10.978;2023-10-13T14:06:23;21.80;98.00
26575;DHT22;67165;50.256;10.978;2023-10-13T14:08:53;21.90;98.00
26575;DHT22;67165;50.256;10.978;2023-10-13T14:11:25;21.90;98.00
26575;DHT22;67165;50.256;10.978;2023-10-13T14:14:11;22.00;98.00
26575;DHT22;67165;50.256;10.978;2023-10-13T14:16:41;21.90;98.00
26575;DHT22;67165;50.256;10.978;2023-10-13T14:19:13;21.90;98.00
26575;DHT22;67165;50.256;10.978;2023-10-13T14:21:44;21.90;98.00
26575;DHT22;67165;50.256;10.978;2023-10-13T14:24:15;21.90;98.00
26575;DHT22;67165;50.256;10.978;2023-10-13T14:26:43;21.90;98.00
26575;DHT22;67165;50.256;10.978;2023-10-13T14:29:10;21.90;98.00
26575;DHT22;67165;50.256;10.978;2023-10-13T14:31:39;21.90;98.00
26575;DHT22;67165;50.256;10.978;2023-10-13T14:34:05;22.00;98.00
26575;DHT22;67165;50.256;10.978;2023-10-13T14:36:34;22.00;98.00
26575;DHT22;67165;50.256;10.978;2023-10-13T14:39:01;21.90;98.00
26575;DHT22;67165;50.256;10.978;2023-10-13T14:41:27;21.90;98.00
26575;DHT22;67165;50.256;10.978;2023-10-13T14:43:53;21.90;98.00
26575;DHT22;67165;50.256;10.978;2023-10-13T14:46:22;21.80;98.00
26575;DHT22;67165;50.256;10.978;2023-10-13T14:48:53;21.80;98.00
26575;DHT22;67165;50.256;10.978;2023-10-13T14:51:19;21.80;98.00
26575;DHT22;67165;50.256;10.978;2023-10-13T14:53:46;21.70;98.00
26575;DHT22;67165;50.256;10.978;2023-10-13T14:56:16;21.60;98.00
26575;DHT22;67165;50.256;10.978;2023-10-13T14:58:44;21.60;98.00
26575;DHT22;67165;50.256;10.978;2023-10-13T15:01:13;21.50;98.00
26575;DHT22;67165;50.256;10.978;2023-10-13T15:03:50;21.50;98.00
26575;DHT22;67165;50.256;10.978;2023-10-13T15:06:22;21.50;98.00
26575;DHT22;67165;50.256;10.978;2023-10-13T15:08:51;21.40;98.00
26575;DHT22;67165;50.256;10.978;2023-10-13T15:11:20;21.40;98.00
26575;DHT22;67165;50.256;10.978;2023-10-13T15:13:46;21.30;98.00
26575;DHT22;67165;50.256;10.978;2023-10-13T15:16:17;21.30;98.00
26575;DHT22;67165;50.256;10.978;2023-10-13T15:18:45;21.20;98.00
26575;DHT22;67165;50.256;10.978;2023-10-13T15:21:15;21.20;98.00
26575;DHT22;67165;50.256;10.978;2023-10-13T15:23:43;21.10;98.00
26575;DHT22;67165;50.256;10.978;2023-10-13T15:26:09;21.10;98.00
26575;DHT22;67165;50.256;10.978;2023-10-13T15:28:36;21.00;98.00
26575;DHT22;67165;50.256;10.978;2023-10-13T15:31:15;21.00;98.00
26575;DHT22;67165;50.256;10.978;2023-10-13T15:33:59;20.90;98.00
26575;DHT22;67165;50.256;10.978;2023-10-13T15:36:26;20.80;98.00
26575;DHT22;67165;50.256;10.978;2023-10-13T15:38:53;20.70;98.00
26575;DHT22;67165;50.256;10.978;2023-10-13T15:41:26;20.70;98.00
26575;DHT22;67165;50.256;10.978;2023-10-13T15:43:52;20.60;98.00
26575;DHT22;67165;50.256;10.978;2023-10-13T15:46:20;20.60;98.00
26575;DHT22;67165;50.256;10.978;2023-10-13T15:48:47;20.50;98.00
26575;DHT22;67165;50.256;10.978;2023-10-13T15:51:13;20.40;98.00
26575;DHT22;67165;50.256;10.978;2023-10-13T15:53:39;20.30;98.00
26575;DHT22;67165;50.256;10.978;2023-10-13T15:56:05;20.30;98.00
26575;DHT22;67165;50.256;10.978;2023-10-13T15:58:40;20.30;98.00
26575;DHT22;67165;50.256;10.978;2023-10-13T16:01:06;20.20;98.00
26575;DHT22;67165;50.256;10.978;2023-10-13T16:03:35;20.20;98.00
26575;DHT22;67165;50.256;10.978;2023-10-13T16:06:03;20.10;98.00
26575;DHT22;67165;50.256;10.978;2023-10-13T16:08:36;20.10;98.00
26575;DHT22;67165;50.256;10.978;2023-10-13T16:11:06;20.00;98.00
26575;DHT22;67165;50.256;10.978;2023-10-13T16:13:34;19.90;98.00
26575;DHT22;67165;50.256;10.978;2023-10-13T16:16:02;19.90;98.00
26575;DHT22;67165;50.256;10.978;2023-10-13T16:18:28;19.80;98.00